Main page
METAR-TAF:

METAR-TAF

Airports :

Cairo International Airport

Cairo, Egypt

latitude: 30-08N, longitude: 031-24E, elevation: 64 m

Current weather observation

The report was made 14 minutes ago, at 06:30 UTC
Wind 6 kt from the North
Temperature 28°C
Humidity 70%
Pressure 1010 hPa
Visibility: 6000 m
Scattered clouds at a height of 2500 ft

METAR: HECA 180630Z 01006KT 6000 SCT025 28/22 Q1010 NOSIG

Time: 08:44 (06:44 UTC)

Forecast

The report was made 1 hour and 44 minutes ago, at 05:00 UTC
Forecast valid from 18 at 06 UTC to 19 at 12 UTC
Wind 8 kt from the North/Northeast
Visibility: 6000 m
Temporary
from 18 at 06 UTC to 18 at 08 UTC
Wind 3 kt from variable directions
Becoming
from 18 at 08 UTC to 18 at 10 UTC
Wind 10 kt from the North/Northwest
Visibility 10 km or more
no clouds below 1500 m and no cumulonimbus

TAF: HECA 180500Z 1806/1912 02008KT 6000 NSC TEMPO 1806/1808 VRB03KT 3000BR BECMG 1808/1810 34010KT CAVOK

Weather observations and forecasts of more than 4000 airports (METAR and TAF reports).

The available stations are represented by yellow and red dots on the map.

Hover mouse over dot to see the name of the station.

Then click to see weather observations and forecasts.

To change the map : click on the green buttons with a black cross to zoom in, on the green button with a dash to zoom out, or on the green arrows for adjacent maps.


METAR-TAF: